createdAt,value
2022-09-16T08:45:30.746Z,89.27
2022-09-16T08:46:41.954Z,90.64
2022-09-16T09:09:04.513Z,89.61
2022-09-16T09:24:24.446Z,88.96
2022-09-16T09:25:47.683Z,87.82
2022-09-16T09:35:35.584Z,87.08
2022-09-16T09:36:42.822Z,86.40
2022-09-16T09:50:20.349Z,86.17
2022-09-16T10:11:36.298Z,87.16
2022-09-16T10:23:35.913Z,88.39
2022-09-16T10:24:44.522Z,88.44
2022-09-16T10:33:28.484Z,84.72
2022-09-16T10:34:34.401Z,83.68
2022-09-16T10:42:36.177Z,82.24
2022-09-16T10:43:39.733Z,83.53
2022-09-16T10:54:42.049Z,83.60
2022-09-16T11:06:01.637Z,83.58
2022-09-16T11:16:45.860Z,82.27
2022-09-16T11:24:01.286Z,81.58
2022-09-16T11:25:08.612Z,80.53
2022-09-16T11:26:26.702Z,81.20
2022-09-16T11:33:03.404Z,77.29
2022-09-16T11:34:23.745Z,76.12
2022-09-16T11:36:08.136Z,75.70
2022-09-16T11:37:23.048Z,73.90
2022-09-16T11:38:46.083Z,74.36
2022-09-16T11:39:50.521Z,72.13
2022-09-16T11:41:09.055Z,71.56
2022-09-16T11:42:10.331Z,72.20
2022-09-16T11:43:45.029Z,72.48
2022-09-16T11:48:44.021Z,71.92
2022-09-16T11:50:04.032Z,69.98
2022-09-16T11:51:20.003Z,69.95
2022-09-16T11:52:28.107Z,67.92
2022-09-16T11:53:54.137Z,66.29
2022-09-16T11:55:23.716Z,66.55
2022-09-16T12:02:05.136Z,62.99
2022-09-16T12:03:26.897Z,60.02
2022-09-16T12:04:32.760Z,60.96
2022-09-16T12:05:49.169Z,62.71
2022-09-16T12:07:16.463Z,64.45
2022-09-16T12:20:05.509Z,67.60
2022-09-16T12:21:17.947Z,69.79
2022-09-16T12:27:35.676Z,68.16
2022-09-16T12:28:48.938Z,68.29
2022-09-16T12:30:03.028Z,68.17
2022-09-16T12:31:36.612Z,68.57
2022-09-16T12:32:47.897Z,68.43
2022-09-16T12:33:56.378Z,68.57
2022-09-16T12:35:03.770Z,68.88
2022-09-16T12:38:24.089Z,67.68
2022-09-16T12:39:25.506Z,67.17
2022-09-16T12:40:35.853Z,65.87
2022-09-16T12:42:00.441Z,66.91
2022-09-16T12:43:23.365Z,66.37
2022-09-16T12:44:49.612Z,66.46
2022-09-16T12:46:45.894Z,67.26
2022-09-16T12:48:38.144Z,66.62
2022-09-16T12:56:41.694Z,58.43
2022-09-16T12:58:20.851Z,59.17
2022-09-16T12:59:51.123Z,60.01
2022-09-16T13:00:52.449Z,58.48
2022-09-16T13:02:19.543Z,59.00
2022-09-16T13:03:27.205Z,58.27
2022-09-16T13:04:39.294Z,56.74
2022-09-16T13:05:47.088Z,55.00
2022-09-16T13:06:52.020Z,55.33
2022-09-16T13:07:57.788Z,55.95
2022-09-16T13:09:15.197Z,54.50
2022-09-16T13:10:46.960Z,56.43
2022-09-16T13:12:36.824Z,56.50
2022-09-16T13:13:48.126Z,54.34
2022-09-16T13:14:53.270Z,53.72
2022-09-16T13:15:57.254Z,53.11
2022-09-16T13:17:02.295Z,53.66
2022-09-16T13:18:19.572Z,57.18
2022-09-16T13:19:39.908Z,56.91
2022-09-16T13:26:12.840Z,54.68
2022-09-16T13:27:27.102Z,56.74
2022-09-16T13:28:40.817Z,57.68
2022-09-16T13:29:44.295Z,57.99
2022-09-16T13:30:45.857Z,59.32
2022-09-16T13:31:48.948Z,59.05
2022-09-16T13:32:50.746Z,58.58
2022-09-16T13:33:58.252Z,59.61
2022-09-16T13:35:05.946Z,60.28
2022-09-16T13:36:30.514Z,59.88
2022-09-16T13:37:32.065Z,59.29
2022-09-16T13:38:42.661Z,58.96
2022-09-16T13:39:48.369Z,55.30
2022-09-16T13:40:57.700Z,55.87
2022-09-16T13:42:25.343Z,54.76
2022-09-16T13:43:50.387Z,53.69
2022-09-16T13:50:05.049Z,51.46
2022-09-16T13:51:13.920Z,51.75
2022-09-16T13:52:27.501Z,53.24
2022-09-16T13:53:31.353Z,55.68
2022-09-16T13:55:09.305Z,56.74
2022-09-16T13:56:17.198Z,53.82
2022-09-16T13:57:28.776Z,52.54
2022-09-16T13:58:37.809Z,52.98
2022-09-16T14:00:06.041Z,54.22
2022-09-16T14:01:28.369Z,52.55
2022-09-16T14:02:48.479Z,53.43
2022-09-16T14:04:06.716Z,51.64
2022-09-16T14:05:46.716Z,51.70
2022-09-16T14:07:17.397Z,51.32
2022-09-16T14:14:06.035Z,54.83
2022-09-16T14:15:08.558Z,55.43
2022-09-16T14:16:19.704Z,55.25
2022-09-16T14:17:25.598Z,55.22
2022-09-16T14:18:30.551Z,55.44
2022-09-16T14:19:36.767Z,54.40
2022-09-16T14:26:06.238Z,51.87
2022-09-16T14:27:36.931Z,52.90
2022-09-16T14:28:39.421Z,53.84
2022-09-16T14:29:40.992Z,53.37
2022-09-16T14:31:00.157Z,55.37
2022-09-16T14:32:03.945Z,55.59
2022-09-16T14:33:06.741Z,54.93
2022-09-16T14:34:10.425Z,54.16
2022-09-16T14:35:22.942Z,53.34
2022-09-16T14:36:35.473Z,52.55
2022-09-16T14:37:38.867Z,51.37
2022-09-16T14:38:48.482Z,51.68
2022-09-16T14:39:55.208Z,51.47
2022-09-16T14:40:56.887Z,52.11
2022-09-16T14:42:05.238Z,51.81
2022-09-16T14:43:12.346Z,51.46
2022-09-16T14:44:20.050Z,50.48
2022-09-16T14:45:22.230Z,51.18
2022-09-16T14:46:23.905Z,51.50
2022-09-16T14:47:51.327Z,51.15
2022-09-16T14:48:53.738Z,51.69
2022-09-16T14:50:01.714Z,52.56
2022-09-16T14:51:03.669Z,55.25
2022-09-16T14:52:15.976Z,53.65
2022-09-16T14:53:36.170Z,55.07
2022-09-16T14:54:48.546Z,55.83
2022-09-16T14:55:50.158Z,55.70
2022-09-16T14:57:03.528Z,54.41
2022-09-16T14:58:05.194Z,53.54
2022-09-16T14:59:11.361Z,52.45
2022-09-16T15:00:21.948Z,52.60
2022-09-16T15:01:28.177Z,53.85
2022-09-16T15:02:44.785Z,53.85
2022-09-16T15:03:57.728Z,55.42
2022-09-16T15:05:30.096Z,55.07
2022-09-16T15:06:48.983Z,55.26
2022-09-16T15:13:05.201Z,52.93
2022-09-16T15:14:07.693Z,51.98
2022-09-16T15:15:20.654Z,49.85
2022-09-16T15:16:24.462Z,50.64
2022-09-16T15:17:28.389Z,50.35
2022-09-16T15:18:32.746Z,50.19
2022-09-16T15:19:37.175Z,50.15
2022-09-16T15:20:41.704Z,49.09
2022-09-16T15:21:44.621Z,49.11
2022-09-16T15:22:46.274Z,49.69
2022-09-16T15:23:55.738Z,48.76
2022-09-16T15:24:59.407Z,48.93
2022-09-16T15:26:22.843Z,49.50
2022-09-16T15:27:29.696Z,50.47
2022-09-16T15:28:31.066Z,51.04
2022-09-16T15:29:35.229Z,50.60
2022-09-16T15:30:46.397Z,49.28
2022-09-16T15:31:48.424Z,49.51
2022-09-16T15:32:49.901Z,49.83
2022-09-16T15:33:52.560Z,49.00
2022-09-16T15:35:23.765Z,49.17
2022-09-16T15:36:41.898Z,50.03
2022-09-16T15:37:43.339Z,49.67
2022-09-16T15:38:44.954Z,49.78
2022-09-16T15:39:46.513Z,50.18
2022-09-16T15:40:48.530Z,50.78
2022-09-16T15:42:02.089Z,50.63
2022-09-16T15:43:43.181Z,51.39
2022-09-16T15:44:59.703Z,50.72
2022-09-16T15:46:18.982Z,50.76
2022-09-16T15:47:29.055Z,50.44
2022-09-16T15:48:34.993Z,50.67
2022-09-16T15:49:42.993Z,51.79
2022-09-16T15:50:55.208Z,51.20
2022-09-16T15:52:03.632Z,51.63
2022-09-16T15:53:09.061Z,51.83
2022-09-16T15:54:19.478Z,52.67
2022-09-16T15:55:37.450Z,52.62
2022-09-16T15:56:50.695Z,53.09
2022-09-16T15:58:00.144Z,53.33
2022-09-16T15:59:23.942Z,54.68
2022-09-16T16:00:25.312Z,55.04
2022-09-16T16:07:04.216Z,58.94
2022-09-16T16:08:09.797Z,59.53
2022-09-16T16:09:26.470Z,60.21
2022-09-16T16:10:31.674Z,61.60
2022-09-16T16:11:33.068Z,61.00
2022-09-16T16:12:34.621Z,61.34
2022-09-16T16:25:07.455Z,60.77
2022-09-16T16:26:10.462Z,61.63
2022-09-16T16:27:11.979Z,61.29
2022-09-16T16:28:13.303Z,62.15
2022-09-16T16:29:14.638Z,62.01
2022-09-16T16:30:16.351Z,62.02
2022-09-16T16:31:18.750Z,62.73
2022-09-16T16:32:20.222Z,63.05
2022-09-16T16:33:21.605Z,62.63
2022-09-16T16:34:22.952Z,63.51
2022-09-16T16:35:24.390Z,63.56
2022-09-16T16:36:25.776Z,63.61
2022-09-16T16:43:04.415Z,65.00
2022-09-16T16:44:05.818Z,64.66
2022-09-16T16:45:07.783Z,65.08
2022-09-16T16:46:13.619Z,64.48
2022-09-16T16:47:15.368Z,65.04
2022-09-16T16:48:16.701Z,65.18
2022-09-16T16:49:18.353Z,65.36
2022-09-16T17:17:44.375Z,84.73
